createdAt,value
2023-01-13T00:01:21.074Z,100922.91
2023-01-13T00:04:29.728Z,100931.72
2023-01-13T00:07:38.579Z,100928.53
2023-01-13T00:10:53.676Z,100927.50
2023-01-13T00:14:08.724Z,100923.22
2023-01-13T00:17:16.730Z,100901.78
2023-01-13T00:20:31.714Z,100920.56
2023-01-13T00:23:41.691Z,100920.25
2023-01-13T00:26:56.714Z,100914.09
2023-01-13T00:30:05.697Z,100919.63
2023-01-13T00:33:20.706Z,100917.72
2023-01-13T00:36:22.793Z,100906.59
2023-01-13T00:39:44.712Z,100911.41
2023-01-13T00:42:53.322Z,100911.22
2023-01-13T00:46:08.760Z,100916.22
2023-01-13T00:49:16.712Z,100918.63
2023-01-13T00:52:25.675Z,100918.44
2023-01-13T00:55:36.754Z,100913.88
2023-01-13T00:58:46.877Z,100909.16
2023-01-13T01:01:54.818Z,100907.34
2023-01-13T01:05:03.468Z,100912.59
2023-01-13T01:08:12.721Z,100905.16
2023-01-13T01:11:30.742Z,100904.87
2023-01-13T01:14:32.710Z,100899.56
2023-01-13T01:17:47.748Z,100871.09
2023-01-13T01:20:51.983Z,100899.62
2023-01-13T01:24:08.736Z,100891.53
2023-01-13T01:27:10.557Z,100893.81
2023-01-13T01:30:25.731Z,100892.62
2023-01-13T01:33:28.187Z,100889.88
2023-01-13T01:36:42.747Z,100889.47
2023-01-13T01:39:57.751Z,100885.56
2023-01-13T01:43:19.499Z,100894.44
2023-01-13T01:46:27.801Z,100880.16
2023-01-13T01:49:37.921Z,100883.19
2023-01-13T01:52:50.784Z,100877.63
2023-01-13T01:56:00.405Z,100873.25
2023-01-13T01:59:09.741Z,100876.66
2023-01-13T02:02:18.655Z,100868.78
2023-01-13T02:05:29.750Z,100862.16
2023-01-13T02:08:40.923Z,100869.00
2023-01-13T02:11:49.747Z,100862.25
2023-01-13T02:15:19.762Z,100863.13
2023-01-13T02:18:41.561Z,100865.28
2023-01-13T02:22:23.786Z,100855.59
2023-01-13T02:26:00.745Z,100860.06
2023-01-13T02:29:23.983Z,100866.44
2023-01-13T02:32:51.772Z,100858.72
2023-01-13T02:36:10.264Z,100845.22
2023-01-13T02:39:25.804Z,100846.47
2023-01-13T02:42:45.519Z,100844.59
2023-01-13T02:46:13.763Z,100845.94
2023-01-13T02:49:31.196Z,100813.53
2023-01-13T02:52:45.781Z,100836.22
2023-01-13T02:56:03.754Z,100839.72
2023-01-13T02:59:06.775Z,100841.91
2023-01-13T03:02:25.831Z,100832.22
2023-01-13T03:05:31.503Z,100832.34
2023-01-13T03:08:59.828Z,100830.41
2023-01-13T03:12:22.769Z,100831.16
2023-01-13T03:15:43.456Z,100836.22
2023-01-13T03:19:07.773Z,100825.31
2023-01-13T03:22:54.824Z,100819.31
2023-01-13T03:26:15.262Z,100818.41
2023-01-13T03:29:28.808Z,100824.09
2023-01-13T03:32:49.811Z,100827.41
2023-01-13T03:36:04.792Z,100814.31
2023-01-13T03:39:34.837Z,100825.69
2023-01-13T03:42:52.780Z,100819.63
2023-01-13T03:46:09.005Z,100814.47
2023-01-13T03:49:22.821Z,100810.37
2023-01-13T03:52:36.322Z,100808.47
2023-01-13T03:55:50.886Z,100800.28
2023-01-13T03:59:09.819Z,100805.22
2023-01-13T04:02:19.650Z,100807.25
2023-01-13T04:05:35.808Z,100806.09
2023-01-13T04:08:54.546Z,100804.50
2023-01-13T04:12:12.797Z,100807.16
2023-01-13T04:15:30.857Z,100817.91
2023-01-13T04:18:36.437Z,100794.53
2023-01-13T04:21:50.844Z,100804.50
2023-01-13T04:24:52.729Z,100812.69
2023-01-13T04:28:07.913Z,100810.31
2023-01-13T04:31:10.232Z,100818.50
2023-01-13T04:34:26.381Z,100811.16
2023-01-13T04:37:36.804Z,100820.19
2023-01-13T04:40:58.834Z,100824.06
2023-01-13T04:44:06.823Z,100823.81
2023-01-13T04:47:21.874Z,100828.44
2023-01-13T04:50:31.414Z,100824.16
2023-01-13T04:53:39.888Z,100818.28
2023-01-13T04:56:48.511Z,100815.59
2023-01-13T05:00:02.848Z,100821.66
2023-01-13T05:03:11.845Z,100817.78
2023-01-13T05:06:20.577Z,100820.56
2023-01-13T05:09:29.867Z,100825.66
2023-01-13T05:12:38.434Z,100831.28
2023-01-13T05:15:47.893Z,100829.38
2023-01-13T05:18:56.733Z,100833.75
2023-01-13T05:22:05.856Z,100818.00
2023-01-13T05:25:20.853Z,100831.94
2023-01-13T05:28:28.861Z,100834.91
2023-01-13T05:31:43.907Z,100850.28
2023-01-13T05:34:45.757Z,100844.28
2023-01-13T05:38:02.951Z,100847.59
2023-01-13T05:41:17.890Z,100838.94
2023-01-13T05:44:32.864Z,100835.06
2023-01-13T05:47:40.856Z,100832.06
2023-01-13T05:50:49.875Z,100842.72
2023-01-13T05:53:58.857Z,100839.19
2023-01-13T05:57:13.891Z,100836.09
2023-01-13T06:00:16.667Z,100843.78
2023-01-13T06:03:32.887Z,100838.25
2023-01-13T06:06:34.663Z,100838.47
2023-01-13T06:09:49.885Z,100844.03
2023-01-13T06:12:52.068Z,100840.63
2023-01-13T06:16:06.935Z,100844.03
2023-01-13T06:19:09.139Z,100837.75
2023-01-13T06:22:29.920Z,100845.72
2023-01-13T06:25:50.898Z,100846.47
2023-01-13T06:29:05.896Z,100846.38
2023-01-13T06:32:22.866Z,100855.47
2023-01-13T06:35:34.782Z,100844.84
2023-01-13T06:38:55.917Z,100845.56
2023-01-13T06:42:04.628Z,100840.09
2023-01-13T06:45:18.884Z,100850.34
2023-01-13T06:48:31.194Z,100853.97
2023-01-13T06:51:39.934Z,100859.81
2023-01-13T06:54:54.892Z,100858.06
2023-01-13T06:58:00.719Z,100857.47
2023-01-13T07:01:16.116Z,100854.53
2023-01-13T07:04:24.916Z,100858.22
2023-01-13T07:07:33.654Z,100858.97
2023-01-13T07:10:43.912Z,100865.50
2023-01-13T07:13:59.041Z,100866.88
2023-01-13T07:17:00.908Z,100870.47
2023-01-13T07:20:16.913Z,100871.84
2023-01-13T07:23:18.869Z,100868.88
2023-01-13T07:26:33.967Z,100868.78
2023-01-13T07:29:36.139Z,100856.56
2023-01-13T07:32:50.919Z,100867.41
2023-01-13T07:36:01.697Z,100861.44
2023-01-13T07:39:16.929Z,100866.56
2023-01-13T07:42:32.959Z,100859.44
2023-01-13T07:45:48.007Z,100868.97
2023-01-13T07:48:57.080Z,100877.78
2023-01-13T07:52:11.918Z,100887.34
2023-01-13T07:55:15.873Z,100887.16
2023-01-13T07:58:32.014Z,100862.94
2023-01-13T08:01:41.125Z,100881.59
2023-01-13T08:04:51.092Z,100900.00
2023-01-13T08:08:08.719Z,100893.78
2023-01-13T08:11:18.135Z,100899.31
2023-01-13T08:14:40.035Z,100893.72
2023-01-13T08:17:42.526Z,100916.72
2023-01-13T08:21:02.359Z,100901.19
2023-01-13T08:24:13.587Z,100905.78
2023-01-13T08:27:28.027Z,100903.38
2023-01-13T08:30:37.986Z,100904.94
2023-01-13T08:33:54.043Z,100903.47
2023-01-13T08:36:55.903Z,100905.56
2023-01-13T08:40:12.026Z,100915.47
2023-01-13T08:43:32.047Z,100914.03
2023-01-13T08:46:39.998Z,100911.06
2023-01-13T08:49:49.220Z,100916.34
2023-01-13T08:52:57.963Z,100917.63
2023-01-13T08:56:08.104Z,100929.25
2023-01-13T08:59:26.961Z,100923.47
2023-01-13T09:02:37.082Z,100929.75
2023-01-13T09:05:46.032Z,100922.22
2023-01-13T09:08:54.752Z,100919.78
2023-01-13T09:12:02.999Z,100911.91
2023-01-13T09:15:18.970Z,100922.50
2023-01-13T09:18:21.004Z,100920.94
2023-01-13T09:21:35.999Z,100922.97
2023-01-13T09:24:37.989Z,100933.91
2023-01-13T09:27:52.979Z,100936.56
2023-01-13T09:30:55.308Z,100916.34
2023-01-13T09:34:12.018Z,100914.34
2023-01-13T09:37:14.099Z,100914.34
2023-01-13T09:40:39.838Z,100926.81
2023-01-13T09:43:54.990Z,100915.94
2023-01-13T09:47:16.042Z,100913.66
2023-01-13T09:50:35.031Z,100913.34
2023-01-13T09:53:57.032Z,100906.16
2023-01-13T09:57:06.069Z,100902.28
2023-01-13T10:00:25.108Z,100906.75
2023-01-13T10:03:37.046Z,100906.81
2023-01-13T10:06:52.150Z,100908.37
2023-01-13T10:10:04.022Z,100908.59
2023-01-13T10:13:28.011Z,100902.22
2023-01-13T10:16:40.024Z,100907.44
2023-01-13T10:20:03.049Z,100867.16
2023-01-13T10:23:33.405Z,100897.84
2023-01-13T10:27:09.965Z,100895.81
2023-01-13T10:30:31.987Z,100901.25
2023-01-13T10:33:47.284Z,100904.13
2023-01-13T10:37:08.021Z,100907.09
2023-01-13T10:40:23.335Z,100898.97
2023-01-13T10:43:39.015Z,100891.22
2023-01-13T10:47:01.012Z,100873.97
2023-01-13T10:50:35.085Z,100887.16
2023-01-13T10:53:56.149Z,100889.94
2023-01-13T10:57:17.887Z,100882.56
2023-01-13T11:00:37.972Z,100875.72
2023-01-13T11:03:46.738Z,100861.59
2023-01-13T11:06:54.997Z,100847.22
2023-01-13T11:10:32.023Z,100847.78
2023-01-13T11:13:39.859Z,100846.69
2023-01-13T11:17:00.032Z,100845.03
2023-01-13T11:20:24.059Z,100834.72
2023-01-13T11:23:46.073Z,100824.75
2023-01-13T11:27:08.138Z,100834.88
2023-01-13T11:30:22.925Z,100823.37
2023-01-13T11:33:48.036Z,100819.78
2023-01-13T11:37:00.348Z,100817.09
2023-01-13T11:40:26.035Z,100816.97
2023-01-13T11:43:49.089Z,100819.63
2023-01-13T11:46:52.921Z,100829.63
2023-01-13T11:50:09.040Z,100817.06
2023-01-13T11:53:39.052Z,100820.37
2023-01-13T11:57:24.100Z,100811.66
2023-01-13T12:00:43.026Z,100799.72
2023-01-13T12:04:11.562Z,100791.72
2023-01-13T12:07:28.077Z,100778.75
2023-01-13T12:10:46.449Z,100774.59
2023-01-13T12:14:23.102Z,100761.50
2023-01-13T12:18:05.032Z,100748.09
2023-01-13T12:21:19.924Z,100751.28
2023-01-13T12:24:47.070Z,100738.72
2023-01-13T12:28:07.118Z,100741.72
2023-01-13T12:31:18.183Z,100754.06
2023-01-13T12:34:50.053Z,100747.44
2023-01-13T12:38:14.060Z,100743.81
2023-01-13T12:41:44.922Z,100759.81
2023-01-13T12:48:52.063Z,100752.56
2023-01-13T12:52:15.354Z,100754.28
2023-01-13T12:55:34.069Z,100750.41
2023-01-13T12:58:36.213Z,100746.16
2023-01-13T13:01:54.169Z,100744.59
2023-01-13T13:04:59.501Z,100743.16
2023-01-13T13:08:30.059Z,100743.16
2023-01-13T13:11:46.097Z,100738.50
2023-01-13T13:15:03.114Z,100751.91
2023-01-13T13:18:29.100Z,100748.69
2023-01-13T13:22:04.129Z,100758.53
2023-01-13T13:25:21.557Z,100754.47
2023-01-13T13:28:31.059Z,100760.25
2023-01-13T13:31:59.856Z,100754.69
2023-01-13T13:35:29.084Z,100761.28
2023-01-13T13:39:14.178Z,100756.44
2023-01-13T13:42:27.069Z,100755.03
2023-01-13T13:45:42.130Z,100751.16
2023-01-13T13:48:59.144Z,100742.22
2023-01-13T13:52:33.682Z,100762.34
2023-01-13T13:55:43.076Z,100756.22
2023-01-13T13:58:59.106Z,100754.16
2023-01-13T14:02:10.278Z,100769.53
2023-01-13T14:05:30.159Z,100772.37
2023-01-13T14:08:36.862Z,100776.50
2023-01-13T14:12:06.051Z,100778.47
2023-01-13T14:15:24.456Z,100771.56
2023-01-13T14:18:53.056Z,100775.38
2023-01-13T14:22:02.378Z,100765.78
2023-01-13T14:25:34.070Z,100781.69
2023-01-13T14:28:45.070Z,100783.28
2023-01-13T14:31:54.669Z,100771.69
2023-01-13T14:35:03.058Z,100766.56
2023-01-13T14:38:23.056Z,100769.50
2023-01-13T14:41:54.030Z,100768.09
2023-01-13T14:45:03.399Z,100771.88
2023-01-13T14:48:16.314Z,100784.34
2023-01-13T14:51:27.964Z,100779.03
2023-01-13T14:54:53.037Z,100781.97
2023-01-13T14:58:21.572Z,100774.69
2023-01-13T15:01:40.241Z,100779.28
2023-01-13T15:04:49.098Z,100779.25
2023-01-13T15:08:08.077Z,100775.50
2023-01-13T15:11:29.094Z,100785.69
2023-01-13T15:14:34.078Z,100776.59
2023-01-13T15:17:49.093Z,100775.00
2023-01-13T15:20:51.446Z,100769.16
2023-01-13T15:24:06.071Z,100770.03
2023-01-13T15:27:17.655Z,100766.03
2023-01-13T15:30:34.036Z,100766.16
2023-01-13T15:33:35.823Z,100766.19
2023-01-13T15:36:51.115Z,100780.88
2023-01-13T15:39:59.092Z,100780.28
2023-01-13T15:43:18.036Z,100780.88
2023-01-13T15:46:27.079Z,100780.63
2023-01-13T15:49:51.131Z,100774.81
2023-01-13T15:52:52.971Z,100780.69
2023-01-13T15:56:09.065Z,100781.84
2023-01-13T15:59:25.064Z,100798.25
2023-01-13T16:02:40.158Z,100794.13
2023-01-13T16:05:42.740Z,100797.03
2023-01-13T16:08:57.174Z,100797.53
2023-01-13T16:12:06.067Z,100799.97
2023-01-13T16:15:23.116Z,100789.91
2023-01-13T16:18:24.953Z,100792.72
2023-01-13T16:21:40.132Z,100785.44
2023-01-13T16:24:42.368Z,100794.84
2023-01-13T16:27:59.141Z,100789.63
2023-01-13T16:31:15.983Z,100785.03
2023-01-13T16:34:31.192Z,100792.53
2023-01-13T16:37:33.057Z,100794.25
2023-01-13T16:40:51.155Z,100787.56
2023-01-13T16:44:00.404Z,100779.13
2023-01-13T16:47:21.172Z,100778.56
2023-01-13T16:50:41.657Z,100784.12
2023-01-13T16:53:58.208Z,100776.28
2023-01-13T16:57:13.183Z,100777.19
2023-01-13T17:00:15.918Z,100780.50
2023-01-13T17:03:30.210Z,100779.28
2023-01-13T17:06:50.177Z,100776.00
2023-01-13T17:10:05.279Z,100778.47
2023-01-13T17:13:15.926Z,100779.56
2023-01-13T17:16:31.222Z,100778.72
2023-01-13T17:19:39.154Z,100774.84
2023-01-13T17:22:57.746Z,100770.47
2023-01-13T17:26:06.183Z,100781.09
2023-01-13T17:29:24.207Z,100781.06
2023-01-13T17:32:33.197Z,100789.00
2023-01-13T17:35:48.177Z,100778.22
2023-01-13T17:38:50.645Z,100788.47
2023-01-13T17:42:12.295Z,100794.53
2023-01-13T17:45:27.278Z,100795.19
2023-01-13T17:48:36.387Z,100797.34
2023-01-13T17:51:45.197Z,100801.38
2023-01-13T17:55:00.223Z,100801.34
2023-01-13T17:58:02.204Z,100804.50
2023-01-13T18:01:22.305Z,100792.13
2023-01-13T18:04:25.884Z,100807.16
2023-01-13T18:07:40.230Z,100805.72
2023-01-13T18:10:49.213Z,100800.38
2023-01-13T18:14:05.217Z,100803.41
2023-01-13T18:17:07.304Z,100800.66
2023-01-13T18:20:25.213Z,100805.22
2023-01-13T18:23:27.035Z,100811.56
2023-01-13T18:26:43.204Z,100818.00
2023-01-13T18:29:47.087Z,100819.13
2023-01-13T18:33:02.249Z,100814.75
2023-01-13T18:36:08.214Z,100812.31
2023-01-13T18:39:23.268Z,100809.87
2023-01-13T18:42:38.200Z,100817.44
2023-01-13T18:45:50.655Z,100820.47
2023-01-13T18:48:59.239Z,100813.81
2023-01-13T18:52:08.092Z,100824.00
2023-01-13T18:55:16.216Z,100822.06
2023-01-13T18:58:25.068Z,100820.00
2023-01-13T19:01:34.398Z,100829.47
2023-01-13T19:04:46.081Z,100832.25
2023-01-13T19:07:54.235Z,100830.66
2023-01-13T19:11:13.265Z,100837.09
2023-01-13T19:14:22.227Z,100829.09
2023-01-13T19:17:40.326Z,100832.00
2023-01-13T19:20:46.031Z,100831.75
2023-01-13T19:24:03.278Z,100833.34
2023-01-13T19:27:05.759Z,100842.06
2023-01-13T19:30:21.239Z,100838.69
2023-01-13T19:33:32.653Z,100850.22
2023-01-13T19:36:41.255Z,100855.94
2023-01-13T19:39:57.231Z,100861.13
2023-01-13T19:43:06.501Z,100864.78
2023-01-13T19:46:21.314Z,100865.88
2023-01-13T19:49:23.705Z,100868.91
2023-01-13T19:52:39.261Z,100867.81
2023-01-13T19:55:46.346Z,100869.41
2023-01-13T19:59:01.295Z,100881.53
2023-01-13T20:02:16.171Z,100906.28
2023-01-13T20:05:27.311Z,100916.16
2023-01-13T20:08:36.564Z,100909.62
2023-01-13T20:11:45.269Z,100913.38
2023-01-13T20:15:00.411Z,100907.81
2023-01-13T20:18:09.248Z,100912.59
2023-01-13T20:21:20.397Z,100901.47
2023-01-13T20:24:29.281Z,100895.72
2023-01-13T20:27:37.903Z,100895.84
2023-01-13T20:30:47.296Z,100897.56
2023-01-13T20:33:56.057Z,100878.25
2023-01-13T20:37:04.263Z,100880.16
2023-01-13T20:40:15.401Z,100885.88
2023-01-13T20:43:24.281Z,100884.44
2023-01-13T20:46:39.292Z,100868.38
2023-01-13T20:49:41.328Z,100877.75
2023-01-13T20:52:56.287Z,100872.00
2023-01-13T20:55:58.263Z,100884.56
2023-01-13T20:59:14.311Z,100885.81
2023-01-13T21:02:23.189Z,100892.00
2023-01-13T21:05:31.292Z,100895.41
2023-01-13T21:08:46.313Z,100905.13
2023-01-13T21:11:50.056Z,100903.19
2023-01-13T21:15:04.332Z,100896.78
2023-01-13T21:18:06.271Z,100894.31
2023-01-13T21:21:21.308Z,100889.56
2023-01-13T21:24:23.923Z,100884.56
2023-01-13T21:27:39.340Z,100878.25
2023-01-13T21:30:49.307Z,100875.88
2023-01-13T21:33:58.431Z,100870.25
2023-01-13T21:37:06.320Z,100867.13
2023-01-13T21:40:22.382Z,100868.56
2023-01-13T21:43:37.299Z,100879.00
2023-01-13T21:46:52.329Z,100875.38
2023-01-13T21:49:54.295Z,100875.38
2023-01-13T21:53:09.311Z,100873.03
2023-01-13T21:56:11.220Z,100874.53
2023-01-13T21:59:26.343Z,100865.03
2023-01-13T22:02:28.359Z,100849.34
2023-01-13T22:05:44.295Z,100844.00
2023-01-13T22:08:46.364Z,100856.78
2023-01-13T22:12:01.310Z,100866.72
2023-01-13T22:15:10.312Z,100871.28
2023-01-13T22:18:25.310Z,100882.88
2023-01-13T22:21:34.331Z,100904.06
2023-01-13T22:24:50.334Z,100905.22
2023-01-13T22:27:52.131Z,100934.44
2023-01-13T22:31:08.309Z,100946.06
2023-01-13T22:34:12.186Z,100936.66
2023-01-13T22:37:27.363Z,100932.97
2023-01-13T22:40:29.861Z,100944.88
2023-01-13T22:43:51.340Z,100942.59
2023-01-13T22:46:59.347Z,100953.53
2023-01-13T22:50:15.320Z,100960.56
2023-01-13T22:53:18.661Z,100965.22
2023-01-13T22:56:33.418Z,100959.16
2023-01-13T22:59:42.367Z,100964.75
2023-01-13T23:02:51.035Z,100953.97
2023-01-13T23:06:03.384Z,100957.38
2023-01-13T23:09:11.967Z,100951.31
2023-01-13T23:12:20.365Z,100945.34
2023-01-13T23:15:36.380Z,100935.91
2023-01-13T23:18:38.729Z,100919.16
2023-01-13T23:21:54.395Z,100907.81
2023-01-13T23:24:56.210Z,100890.34
2023-01-13T23:28:11.435Z,100880.72
2023-01-13T23:31:16.481Z,100882.00
2023-01-13T23:34:31.363Z,100875.00
2023-01-13T23:37:39.380Z,100886.19
2023-01-13T23:40:54.416Z,100895.59
2023-01-13T23:44:02.712Z,100886.91
2023-01-13T23:47:17.407Z,100890.06
2023-01-13T23:50:26.339Z,100897.78
2023-01-13T23:53:40.099Z,100884.25
2023-01-13T23:56:49.413Z,100880.25
2023-01-13T23:59:58.004Z,100890.06
